createdAt,value
2022-10-18T00:02:11.169Z,101827.00
2022-10-18T00:04:37.970Z,101824.75
2022-10-18T00:07:04.659Z,101820.25
2022-10-18T00:09:31.431Z,101827.69
2022-10-18T00:11:58.004Z,101820.69
2022-10-18T00:14:24.551Z,101821.25
2022-10-18T00:16:51.046Z,101821.66
2022-10-18T00:19:18.946Z,101827.69
2022-10-18T00:24:16.855Z,101801.34
2022-10-18T00:26:43.469Z,101811.72
2022-10-18T00:29:13.812Z,101810.00
2022-10-18T00:31:40.321Z,101811.16
2022-10-18T00:34:10.006Z,101813.13
2022-10-18T00:36:38.012Z,101812.28
2022-10-18T00:39:06.158Z,101809.59
2022-10-18T00:41:34.248Z,101791.09
2022-10-18T00:44:04.299Z,101807.78
2022-10-18T00:46:32.496Z,101802.16
2022-10-18T00:49:01.799Z,101792.22
2022-10-18T00:51:32.481Z,101802.88
2022-10-18T00:54:00.480Z,101795.31
2022-10-18T00:56:27.022Z,101794.72
2022-10-18T00:58:53.931Z,101799.38
2022-10-18T01:01:24.416Z,101795.16
2022-10-18T01:03:54.450Z,101789.97
2022-10-18T01:06:20.972Z,101787.31
2022-10-18T01:09:00.636Z,101790.81
2022-10-18T01:11:41.815Z,101788.13
2022-10-18T01:14:18.685Z,101778.63
2022-10-18T01:16:53.941Z,101780.44
2022-10-18T01:20:02.410Z,101772.88
2022-10-18T01:22:34.572Z,101777.22
2022-10-18T01:25:16.281Z,101774.72
2022-10-18T01:27:52.976Z,101772.88
2022-10-18T01:30:47.965Z,101773.16
2022-10-18T01:33:24.356Z,101780.16
2022-10-18T01:35:57.005Z,101777.50
2022-10-18T01:38:24.646Z,101781.84
2022-10-18T01:40:52.730Z,101770.22
2022-10-18T01:43:21.362Z,101774.72
2022-10-18T01:45:49.689Z,101771.47
2022-10-18T01:48:17.243Z,101774.72
2022-10-18T01:50:43.851Z,101768.13
2022-10-18T01:53:25.561Z,101774.72
2022-10-18T01:55:56.030Z,101775.81
2022-10-18T01:58:30.755Z,101763.75
2022-10-18T02:01:07.473Z,101776.09
2022-10-18T02:03:37.637Z,101761.09
2022-10-18T02:06:09.480Z,101762.22
2022-10-18T02:08:42.534Z,101741.88
2022-10-18T02:11:13.241Z,101758.72
2022-10-18T02:13:43.959Z,101753.41
2022-10-18T02:16:14.406Z,101748.47
2022-10-18T02:18:45.392Z,101744.28
2022-10-18T02:21:15.706Z,101749.75
2022-10-18T02:23:44.895Z,101747.91
2022-10-18T02:26:11.762Z,101742.59
2022-10-18T02:28:38.782Z,101751.69
2022-10-18T02:31:13.355Z,101762.50
2022-10-18T02:33:48.982Z,101752.53
2022-10-18T02:36:23.834Z,101750.72
2022-10-18T02:38:55.926Z,101761.38
2022-10-18T02:41:24.201Z,101751.69
2022-10-18T02:43:50.731Z,101762.22
2022-10-18T02:46:17.518Z,101770.06
2022-10-18T02:48:45.851Z,101758.56
2022-10-18T02:51:12.405Z,101766.28
2022-10-18T02:53:38.912Z,101769.09
2022-10-18T02:56:05.817Z,101759.28
2022-10-18T02:58:32.355Z,101763.34
2022-10-18T03:00:58.966Z,101765.31
2022-10-18T03:03:25.536Z,101764.91
2022-10-18T03:05:53.431Z,101764.59
2022-10-18T03:08:19.980Z,101747.09
2022-10-18T03:10:47.011Z,101769.66
2022-10-18T03:13:13.541Z,101763.63
2022-10-18T03:15:40.210Z,101772.88
2022-10-18T03:18:06.749Z,101772.59
2022-10-18T03:20:33.827Z,101768.69
2022-10-18T03:23:01.814Z,101785.22
2022-10-18T03:25:28.386Z,101786.63
2022-10-18T03:27:54.929Z,101783.38
2022-10-18T03:30:21.517Z,101782.13
2022-10-18T03:32:48.070Z,101788.84
2022-10-18T03:35:14.643Z,101781.84
2022-10-18T03:37:41.175Z,101789.56
2022-10-18T03:40:10.007Z,101788.59
2022-10-18T03:42:36.699Z,101794.34
2022-10-18T03:45:04.080Z,101783.53
2022-10-18T03:47:30.806Z,101790.41
2022-10-18T03:49:57.547Z,101798.38
2022-10-18T03:52:24.378Z,101799.09
2022-10-18T03:54:50.955Z,101792.78
2022-10-18T03:57:18.793Z,101799.78
2022-10-18T03:59:45.348Z,101777.63
2022-10-18T04:02:11.836Z,101787.47
2022-10-18T04:04:38.369Z,101790.97
2022-10-18T04:07:05.291Z,101792.94
2022-10-18T04:09:31.894Z,101784.94
2022-10-18T04:11:58.423Z,101790.97
2022-10-18T04:14:27.278Z,101761.38
2022-10-18T04:16:53.771Z,101778.47
2022-10-18T04:19:20.350Z,101772.19
2022-10-18T04:21:46.888Z,101774.41
2022-10-18T04:24:13.518Z,101776.22
2022-10-18T04:26:39.994Z,101769.09
2022-10-18T04:29:06.750Z,101772.03
2022-10-18T04:31:34.683Z,101767.69
2022-10-18T04:34:01.286Z,101776.66
2022-10-18T04:36:27.802Z,101777.78
2022-10-18T04:38:54.370Z,101779.75
2022-10-18T04:41:20.887Z,101784.25
2022-10-18T04:43:47.520Z,101784.25
2022-10-18T04:46:14.019Z,101784.38
2022-10-18T04:48:42.025Z,101773.88
2022-10-18T04:51:08.553Z,101787.47
2022-10-18T04:53:35.102Z,101785.66
2022-10-18T04:56:01.661Z,101779.47
2022-10-18T04:58:28.294Z,101670.94
2022-10-18T05:00:54.930Z,101787.47
2022-10-18T05:03:21.487Z,101775.25
2022-10-18T05:06:01.448Z,101772.03
2022-10-18T05:08:29.376Z,101783.13
2022-10-18T05:10:56.018Z,101788.31
2022-10-18T05:13:22.566Z,101795.44
2022-10-18T05:15:49.085Z,101787.47
2022-10-18T05:18:15.823Z,101790.97
2022-10-18T05:20:42.349Z,101794.75
2022-10-18T05:23:10.529Z,101783.81
2022-10-18T05:25:38.253Z,101791.09
2022-10-18T05:28:10.950Z,101785.34
2022-10-18T05:30:42.860Z,101786.34
2022-10-18T05:33:09.688Z,101788.72
2022-10-18T05:35:36.680Z,101788.44
2022-10-18T05:38:04.231Z,101804.41
2022-10-18T05:40:32.290Z,101804.28
2022-10-18T05:42:58.873Z,101807.81
2022-10-18T05:45:25.559Z,101804.97
2022-10-18T05:47:52.083Z,101744.41
2022-10-18T05:50:18.667Z,101806.66
2022-10-18T05:52:45.186Z,101801.34
2022-10-18T05:55:11.742Z,101797.81
2022-10-18T05:57:39.596Z,101805.13
2022-10-18T06:00:07.200Z,101802.72
2022-10-18T06:02:38.347Z,101811.56
2022-10-18T06:05:05.275Z,101811.16
2022-10-18T06:07:32.047Z,101813.09
2022-10-18T06:09:58.793Z,101825.56
2022-10-18T06:12:25.334Z,101831.88
2022-10-18T06:14:53.295Z,101830.06
2022-10-18T06:17:19.802Z,101831.03
2022-10-18T06:19:46.351Z,101831.88
2022-10-18T06:22:12.848Z,101830.91
2022-10-18T06:24:39.427Z,101836.09
2022-10-18T06:29:38.274Z,101831.75
2022-10-18T06:32:07.561Z,101832.88
2022-10-18T06:34:34.458Z,101834.69
2022-10-18T06:37:01.110Z,101819.28
2022-10-18T06:39:27.700Z,101821.50
2022-10-18T06:41:54.220Z,101806.91
2022-10-18T06:44:21.521Z,101824.03
2022-10-18T06:46:49.103Z,101822.50
2022-10-18T06:49:19.133Z,101833.84
2022-10-18T06:51:46.240Z,101835.69
2022-10-18T06:54:18.115Z,101838.34
2022-10-18T06:56:45.589Z,101846.19
2022-10-18T06:59:12.259Z,101845.19
2022-10-18T07:01:38.948Z,101841.56
2022-10-18T07:04:05.541Z,101852.06
2022-10-18T07:06:33.454Z,101848.44
2022-10-18T07:08:59.982Z,101862.44
2022-10-18T07:11:27.266Z,101862.31
2022-10-18T07:13:58.293Z,101864.00
2022-10-18T07:16:24.849Z,101864.84
2022-10-18T07:18:51.806Z,101871.84
2022-10-18T07:21:20.055Z,101871.44
2022-10-18T07:23:48.495Z,101871.19
2022-10-18T07:26:17.731Z,101868.22
2022-10-18T07:28:47.133Z,101862.75
2022-10-18T07:31:13.818Z,101873.13
2022-10-18T07:33:40.589Z,101876.50
2022-10-18T07:36:09.193Z,101877.06
2022-10-18T07:38:35.999Z,101878.47
2022-10-18T07:41:05.478Z,101869.94
2022-10-18T07:43:32.892Z,101871.63
2022-10-18T07:46:01.488Z,101876.22
2022-10-18T07:48:28.202Z,101890.00
2022-10-18T07:50:57.525Z,101895.88
2022-10-18T07:53:24.145Z,101906.28
2022-10-18T07:55:50.810Z,101907.78
2022-10-18T07:58:18.661Z,101909.06
2022-10-18T08:00:45.212Z,101915.81
2022-10-18T08:03:11.703Z,101909.94
2022-10-18T08:05:38.299Z,101916.38
2022-10-18T08:08:07.897Z,101913.13
2022-10-18T08:10:35.611Z,101918.91
2022-10-18T08:13:02.113Z,101928.03
2022-10-18T08:15:29.988Z,101916.50
2022-10-18T08:17:56.493Z,101924.88
2022-10-18T08:20:31.344Z,101925.16
2022-10-18T08:23:00.456Z,101914.34
2022-10-18T08:25:27.685Z,101920.22
2022-10-18T08:27:54.318Z,101917.22
2022-10-18T08:30:20.841Z,101925.22
2022-10-18T08:32:48.925Z,101924.47
2022-10-18T08:35:15.461Z,101923.75
2022-10-18T08:37:42.024Z,101923.88
2022-10-18T08:40:12.693Z,101922.56
2022-10-18T08:42:58.921Z,101935.16
2022-10-18T08:45:42.084Z,101939.50
2022-10-18T08:48:19.886Z,101933.94
2022-10-18T08:50:46.849Z,101931.19
2022-10-18T08:53:19.074Z,101932.88
2022-10-18T08:55:49.703Z,101935.25
2022-10-18T08:58:19.801Z,101949.53
2022-10-18T09:00:54.478Z,101949.09
2022-10-18T09:03:38.308Z,101945.50
2022-10-18T09:06:19.844Z,101933.25
2022-10-18T09:09:01.146Z,101949.09
2022-10-18T09:11:44.379Z,101966.19
2022-10-18T09:14:56.984Z,101962.75
2022-10-18T09:17:30.693Z,101966.38
2022-10-18T09:20:11.560Z,101971.09
2022-10-18T09:22:51.017Z,101968.56
2022-10-18T09:25:20.136Z,101971.09
2022-10-18T09:27:52.948Z,101977.13
2022-10-18T09:30:37.718Z,101962.25
2022-10-18T09:33:17.121Z,101977.06
2022-10-18T09:35:53.525Z,101971.25
2022-10-18T09:38:26.359Z,101981.38
2022-10-18T09:40:58.109Z,101981.59
2022-10-18T09:43:33.504Z,101968.59
2022-10-18T09:46:00.170Z,101983.38
2022-10-18T09:48:29.196Z,101968.56
2022-10-18T09:51:03.226Z,101978.41
2022-10-18T09:53:36.944Z,101977.94
2022-10-18T09:56:06.804Z,101984.59
2022-10-18T09:58:42.993Z,101984.13
2022-10-18T10:01:12.489Z,101961.50
2022-10-18T10:03:39.365Z,101990.72
2022-10-18T10:06:25.082Z,101988.41
2022-10-18T10:08:57.230Z,101988.97
2022-10-18T10:11:29.457Z,101993.28
2022-10-18T10:13:57.951Z,101987.56
2022-10-18T10:16:26.558Z,101983.66
2022-10-18T10:18:54.108Z,101990.91
2022-10-18T10:21:22.106Z,101973.72
2022-10-18T10:23:53.636Z,101997.63
2022-10-18T10:26:22.111Z,101996.16
2022-10-18T10:28:49.251Z,101998.56
2022-10-18T10:31:27.539Z,102008.81
2022-10-18T10:34:00.770Z,101991.53
2022-10-18T10:36:30.191Z,102009.03
2022-10-18T10:39:04.973Z,102009.72
2022-10-18T10:44:13.874Z,101990.59
2022-10-18T10:46:40.509Z,102016.06
2022-10-18T10:49:39.212Z,102006.88
2022-10-18T10:52:25.851Z,101932.84
2022-10-18T10:55:05.427Z,102002.84
2022-10-18T10:57:38.594Z,102014.41
2022-10-18T11:00:05.883Z,102007.28
2022-10-18T11:02:34.626Z,102014.09
2022-10-18T11:05:16.558Z,102020.97
2022-10-18T11:07:46.256Z,102006.78
2022-10-18T11:10:16.262Z,102025.75
2022-10-18T11:12:44.924Z,102013.53
2022-10-18T11:15:20.737Z,102017.72
2022-10-18T11:17:56.355Z,102013.47
2022-10-18T11:20:28.282Z,102016.53
2022-10-18T11:23:02.732Z,102014.09
2022-10-18T11:25:46.039Z,101994.06
2022-10-18T11:28:19.499Z,102003.94
2022-10-18T11:30:59.494Z,102008.28
2022-10-18T11:34:03.397Z,102008.97
2022-10-18T11:36:31.263Z,102005.06
2022-10-18T11:39:08.934Z,101992.44
2022-10-18T11:41:38.617Z,102006.56
2022-10-18T11:44:18.827Z,102001.22
2022-10-18T11:46:56.017Z,101995.88
2022-10-18T11:49:45.219Z,101989.06
2022-10-18T11:52:21.558Z,101992.81
2022-10-18T11:55:04.933Z,101998.63
2022-10-18T11:57:43.128Z,101994.69
2022-10-18T12:00:22.380Z,101994.69
2022-10-18T12:03:10.747Z,101994.06
2022-10-18T12:05:39.345Z,101992.69
2022-10-18T12:08:10.517Z,101987.75
2022-10-18T12:10:59.909Z,101967.84
2022-10-18T12:13:35.955Z,101982.53
2022-10-18T12:16:04.979Z,101978.91
2022-10-18T12:18:32.722Z,101954.38
2022-10-18T12:21:00.822Z,101978.59
2022-10-18T12:23:37.104Z,101975.53
2022-10-18T12:26:07.602Z,101983.75
2022-10-18T12:28:44.288Z,101985.91
2022-10-18T12:31:20.561Z,101976.00
2022-10-18T12:33:50.663Z,101974.28
2022-10-18T12:36:35.711Z,101984.31
2022-10-18T12:39:06.750Z,101984.28
2022-10-18T12:41:35.932Z,101975.97
2022-10-18T12:44:05.864Z,101982.44
2022-10-18T12:46:47.080Z,101982.06
2022-10-18T12:49:17.516Z,101979.06
2022-10-18T12:51:52.624Z,101973.91
2022-10-18T12:54:24.362Z,101970.56
2022-10-18T12:56:52.564Z,101969.59
2022-10-18T12:59:42.697Z,101974.97
2022-10-18T13:02:20.719Z,101973.00
2022-10-18T13:04:47.549Z,101973.63
2022-10-18T13:07:21.678Z,101969.50
2022-10-18T13:10:38.721Z,101968.66
2022-10-18T13:13:40.542Z,101958.75
2022-10-18T13:16:23.933Z,101943.75
2022-10-18T13:18:54.936Z,101950.97
2022-10-18T13:21:32.193Z,101937.56
2022-10-18T13:24:18.157Z,101953.63
2022-10-18T13:27:05.101Z,101939.63
2022-10-18T13:29:57.143Z,101962.50
2022-10-18T13:32:32.693Z,101968.69
2022-10-18T13:34:59.833Z,101964.03
2022-10-18T13:37:27.427Z,101957.53
2022-10-18T13:40:15.456Z,101925.91
2022-10-18T13:42:42.101Z,101963.50
2022-10-18T13:45:44.374Z,101966.31
2022-10-18T13:48:47.289Z,101967.59
2022-10-18T13:51:42.774Z,101964.00
2022-10-18T13:54:28.589Z,101963.56
2022-10-18T13:57:16.723Z,101968.84
2022-10-18T14:00:07.508Z,101968.38
2022-10-18T14:02:59.925Z,101974.78
2022-10-18T14:05:51.563Z,101971.75
2022-10-18T14:08:24.393Z,101975.28
2022-10-18T14:11:03.545Z,101965.41
2022-10-18T14:13:36.690Z,101967.56
2022-10-18T14:16:09.449Z,101966.75
2022-10-18T14:18:41.050Z,101970.78
2022-10-18T14:21:16.923Z,101963.72
2022-10-18T14:23:47.968Z,101975.59
2022-10-18T14:26:16.616Z,101955.06
2022-10-18T14:29:00.272Z,101981.22
2022-10-18T14:31:27.968Z,101980.19
2022-10-18T14:33:58.404Z,101960.19
2022-10-18T14:36:31.613Z,101960.50
2022-10-18T14:39:01.509Z,101964.16
2022-10-18T14:41:29.807Z,101973.38
2022-10-18T14:44:16.658Z,101972.16
2022-10-18T14:46:44.965Z,101982.81
2022-10-18T14:49:12.737Z,101974.28
2022-10-18T14:51:41.813Z,101989.47
2022-10-18T14:56:46.424Z,101976.16
2022-10-18T14:59:18.124Z,101978.91
2022-10-18T15:01:54.377Z,101979.28
2022-10-18T15:04:27.654Z,101974.97
2022-10-18T15:06:55.818Z,101991.72
2022-10-18T15:11:51.731Z,101964.66
2022-10-18T15:14:19.788Z,101982.69
2022-10-18T15:16:48.743Z,101999.00
2022-10-18T15:19:31.417Z,101992.63
2022-10-18T15:25:10.945Z,101954.59
2022-10-18T15:27:39.483Z,101973.31
2022-10-18T15:30:07.309Z,101973.22
2022-10-18T15:32:34.225Z,101971.47
2022-10-18T15:35:09.655Z,101983.72
2022-10-18T15:37:40.329Z,101956.91
2022-10-18T15:40:37.608Z,101987.09
2022-10-18T15:43:25.858Z,101990.84
2022-10-18T15:45:54.003Z,101994.47
2022-10-18T15:48:23.558Z,101992.66
2022-10-18T15:50:52.425Z,101994.25
2022-10-18T15:53:32.544Z,101986.97
2022-10-18T15:56:03.448Z,101987.75
2022-10-18T15:58:38.958Z,101994.00
2022-10-18T16:01:13.377Z,101993.38
2022-10-18T16:03:40.271Z,101990.59
2022-10-18T16:06:09.931Z,101986.28
2022-10-18T16:08:40.127Z,101949.16
2022-10-18T16:11:12.721Z,101976.41
2022-10-18T16:13:39.500Z,101986.56
2022-10-18T16:16:06.837Z,101987.31
2022-10-18T16:18:33.425Z,101994.19
2022-10-18T16:20:59.963Z,101992.25
2022-10-18T16:23:27.742Z,102000.00
2022-10-18T16:25:54.721Z,102008.44
2022-10-18T16:28:24.516Z,102006.59
2022-10-18T16:30:55.505Z,101987.25
2022-10-18T16:33:22.324Z,102008.88
2022-10-18T16:35:49.226Z,102017.03
2022-10-18T16:38:31.223Z,102022.09
2022-10-18T16:41:02.380Z,101964.88
2022-10-18T16:43:30.378Z,101997.88
2022-10-18T16:45:57.052Z,102020.75
2022-10-18T16:48:24.921Z,102020.59
2022-10-18T16:50:52.735Z,102024.94
2022-10-18T16:53:19.339Z,102022.50
2022-10-18T16:55:46.009Z,102030.06
2022-10-18T16:58:16.337Z,102033.69
2022-10-18T17:00:44.381Z,102016.19
2022-10-18T17:03:10.882Z,102036.25
2022-10-18T17:05:37.496Z,102057.25
2022-10-18T17:08:04.246Z,102035.19
2022-10-18T17:10:31.016Z,102048.34
2022-10-18T17:12:57.548Z,102050.22
2022-10-18T17:15:24.262Z,102055.38
2022-10-18T17:17:52.116Z,102052.06
2022-10-18T17:20:21.254Z,102056.06
2022-10-18T17:22:47.938Z,102042.13
2022-10-18T17:25:14.973Z,102060.97
2022-10-18T17:27:41.816Z,102040.25
2022-10-18T17:30:10.013Z,102063.81
2022-10-18T17:32:36.523Z,102075.22
2022-10-18T17:35:05.339Z,102070.63
2022-10-18T17:37:32.411Z,102074.19
2022-10-18T17:39:59.422Z,102080.13
2022-10-18T17:42:25.934Z,102081.47
2022-10-18T17:44:55.508Z,102080.25
2022-10-18T17:47:24.173Z,102085.09
2022-10-18T17:49:50.669Z,102078.69
2022-10-18T17:52:18.654Z,102067.59
2022-10-18T17:54:45.183Z,102068.19
2022-10-18T17:57:11.776Z,102085.81
2022-10-18T17:59:38.400Z,102091.38
2022-10-18T18:02:05.001Z,102091.13
2022-10-18T18:04:31.488Z,102089.06
2022-10-18T18:06:58.029Z,102050.19
2022-10-18T18:09:25.910Z,102076.25
2022-10-18T18:11:52.705Z,102054.75
2022-10-18T18:14:19.334Z,102065.38
2022-10-18T18:16:46.914Z,102076.47
2022-10-18T18:19:14.504Z,102080.09
2022-10-18T18:21:42.558Z,102078.75
2022-10-18T18:24:09.601Z,102085.25
2022-10-18T18:26:39.200Z,102065.72
2022-10-18T18:29:05.955Z,102089.34
2022-10-18T18:31:37.734Z,102091.63
2022-10-18T18:34:06.805Z,102099.72
2022-10-18T18:36:33.391Z,102094.72
2022-10-18T18:39:00.021Z,102087.13
2022-10-18T18:41:28.378Z,102094.72
2022-10-18T18:43:58.511Z,102070.94
2022-10-18T18:46:27.272Z,102082.50
2022-10-18T18:48:53.953Z,102073.50
2022-10-18T18:51:21.559Z,102086.66
2022-10-18T18:53:48.540Z,102082.31
2022-10-18T18:56:17.767Z,102094.09
2022-10-18T18:58:45.194Z,102089.50
2022-10-18T19:01:14.973Z,102093.25
2022-10-18T19:03:41.552Z,102089.06
2022-10-18T19:06:11.067Z,101992.91
2022-10-18T19:08:39.231Z,102064.88
2022-10-18T19:11:09.026Z,102087.63
2022-10-18T19:13:36.392Z,102090.38
2022-10-18T19:16:22.586Z,102086.88
2022-10-18T19:18:54.041Z,102081.31
2022-10-18T19:21:21.506Z,102077.31
2022-10-18T19:23:48.126Z,102085.28
2022-10-18T19:26:31.914Z,102085.28
2022-10-18T19:29:04.914Z,102079.13
2022-10-18T19:31:33.269Z,102089.47
2022-10-18T19:34:00.194Z,102089.59
2022-10-18T19:36:27.875Z,102058.28
2022-10-18T19:38:54.588Z,102089.47
2022-10-18T19:41:21.596Z,102088.03
2022-10-18T19:43:48.179Z,102089.47
2022-10-18T19:46:14.917Z,102091.28
2022-10-18T19:48:42.880Z,102097.53
2022-10-18T19:51:10.021Z,102088.03
2022-10-18T19:53:37.436Z,102095.25
2022-10-18T19:56:05.981Z,102091.22
2022-10-18T19:58:32.917Z,102099.19
2022-10-18T20:00:59.861Z,102053.38
2022-10-18T20:03:27.649Z,102075.47
2022-10-18T20:05:56.496Z,102098.44
2022-10-18T20:08:23.410Z,102098.78
2022-10-18T20:10:50.553Z,102051.34
2022-10-18T20:13:17.596Z,102084.66
2022-10-18T20:15:46.405Z,102105.22
2022-10-18T20:18:12.930Z,102107.31
2022-10-18T20:20:39.509Z,102104.56
2022-10-18T20:23:07.402Z,102111.66
2022-10-18T20:25:34.048Z,102067.78
2022-10-18T20:28:00.621Z,102115.59
2022-10-18T20:30:27.341Z,102108.94
2022-10-18T20:32:53.913Z,102113.28
2022-10-18T20:35:21.217Z,102117.66
2022-10-18T20:37:49.060Z,102115.09
2022-10-18T20:40:17.058Z,102119.78
2022-10-18T20:42:43.614Z,102100.28
2022-10-18T20:45:10.817Z,102120.41
2022-10-18T20:47:37.319Z,102116.81
2022-10-18T20:50:04.757Z,102124.00
2022-10-18T20:52:31.279Z,102113.00
2022-10-18T20:54:57.832Z,102114.81
2022-10-18T20:57:25.766Z,102118.72
2022-10-18T20:59:52.372Z,102119.66
2022-10-18T21:02:18.868Z,102124.44
2022-10-18T21:04:45.449Z,102109.66
2022-10-18T21:07:11.950Z,102125.97
2022-10-18T21:09:38.609Z,102118.53
2022-10-18T21:12:05.799Z,102121.72
2022-10-18T21:14:33.788Z,102100.53
2022-10-18T21:17:00.291Z,102085.09
2022-10-18T21:19:27.414Z,102073.97
2022-10-18T21:21:56.286Z,102100.97
2022-10-18T21:24:24.230Z,102104.56
2022-10-18T21:26:50.736Z,102107.94
2022-10-18T21:29:21.928Z,102108.06
2022-10-18T21:31:53.340Z,102103.50
2022-10-18T21:34:20.073Z,102099.06
2022-10-18T21:36:47.730Z,102113.88
2022-10-18T21:39:16.929Z,102078.09
2022-10-18T21:41:44.007Z,102097.47
2022-10-18T21:44:11.065Z,102050.22
2022-10-18T21:46:38.595Z,102092.28
2022-10-18T21:49:08.980Z,102099.50
2022-10-18T21:51:35.620Z,102099.69
2022-10-18T21:54:02.128Z,102094.72
2022-10-18T21:56:30.713Z,102087.31
2022-10-18T21:58:57.863Z,102099.16
2022-10-18T22:01:26.182Z,102099.38
2022-10-18T22:03:54.525Z,102098.53
2022-10-18T22:06:23.429Z,102092.50
2022-10-18T22:08:51.561Z,102091.09
2022-10-18T22:11:20.469Z,102090.91
2022-10-18T22:13:47.245Z,102092.69
2022-10-18T22:16:15.820Z,102094.41
2022-10-18T22:18:43.232Z,102097.78
2022-10-18T22:21:11.554Z,102079.34
2022-10-18T22:23:41.368Z,102086.22
2022-10-18T22:26:10.616Z,101973.94
2022-10-18T22:28:37.872Z,102090.25
2022-10-18T22:31:04.816Z,102059.44
2022-10-18T22:33:31.747Z,102086.75
2022-10-18T22:35:58.393Z,102093.41
2022-10-18T22:38:25.167Z,102088.75
2022-10-18T22:40:53.173Z,102083.63
2022-10-18T22:43:19.672Z,102084.91
2022-10-18T22:45:46.207Z,102081.41
2022-10-18T22:48:12.875Z,102085.75
2022-10-18T22:50:39.455Z,102086.91
2022-10-18T22:53:05.962Z,102085.63
2022-10-18T22:55:32.620Z,102091.31
2022-10-18T22:58:00.461Z,102088.69
2022-10-18T23:00:27.180Z,102082.91
2022-10-18T23:02:53.697Z,102091.72
2022-10-18T23:05:20.268Z,102084.09
2022-10-18T23:07:49.990Z,102083.06
2022-10-18T23:10:17.046Z,102084.00
2022-10-18T23:12:44.075Z,102082.41
2022-10-18T23:15:12.259Z,102042.78
2022-10-18T23:17:38.785Z,102080.06
2022-10-18T23:20:05.985Z,102087.25
2022-10-18T23:22:32.752Z,102085.56
2022-10-18T23:24:59.503Z,102082.69
2022-10-18T23:27:26.054Z,102077.63
2022-10-18T23:29:52.611Z,102084.81
2022-10-18T23:32:20.496Z,102091.16
2022-10-18T23:34:47.042Z,102069.84
2022-10-18T23:37:13.615Z,102085.09
2022-10-18T23:39:40.348Z,102089.72
2022-10-18T23:42:06.837Z,102088.25
2022-10-18T23:44:33.520Z,102089.19
2022-10-18T23:47:00.032Z,102086.84
2022-10-18T23:49:27.924Z,102092.03
2022-10-18T23:51:54.439Z,102048.81
2022-10-18T23:54:21.223Z,102080.94
2022-10-18T23:56:47.748Z,102092.44
2022-10-18T23:59:14.586Z,102083.13
